createdAt,value
2022-11-12T00:02:13.808Z,95.90
2022-11-12T00:04:33.245Z,96.00
2022-11-12T00:06:52.399Z,96.00
2022-11-12T00:09:11.933Z,96.10
2022-11-12T00:11:30.770Z,96.10
2022-11-12T00:13:49.999Z,96.30
2022-11-12T00:16:11.263Z,96.40
2022-11-12T00:18:30.526Z,96.40
2022-11-12T00:20:49.484Z,96.20
2022-11-12T00:23:09.160Z,95.80
2022-11-12T00:25:28.326Z,95.90
2022-11-12T00:27:47.635Z,96.20
2022-11-12T00:30:07.633Z,95.90
2022-11-12T00:32:28.725Z,96.00
2022-11-12T00:34:47.835Z,96.10
2022-11-12T00:37:07.614Z,96.80
2022-11-12T00:39:26.571Z,97.10
2022-11-12T00:41:45.888Z,95.80
2022-11-12T00:44:04.897Z,95.30
2022-11-12T00:46:24.726Z,94.70
2022-11-12T00:48:45.578Z,95.00
2022-11-12T00:51:07.095Z,94.50
2022-11-12T00:53:26.190Z,94.30
2022-11-12T00:56:08.464Z,93.90
2022-11-12T00:58:28.083Z,93.40
2022-11-12T01:00:47.312Z,92.70
2022-11-12T01:03:06.719Z,93.20
2022-11-12T01:05:26.238Z,93.10
2022-11-12T01:07:48.386Z,91.70
2022-11-12T01:10:10.399Z,91.00
2022-11-12T01:12:33.400Z,90.60
2022-11-12T01:14:52.513Z,90.50
2022-11-12T01:17:11.930Z,90.60
2022-11-12T01:19:30.938Z,90.20
2022-11-12T01:21:50.255Z,90.00
2022-11-12T01:24:10.185Z,89.60
2022-11-12T01:26:31.090Z,88.40
2022-11-12T01:28:51.942Z,88.50
2022-11-12T01:31:18.478Z,89.10
2022-11-12T01:33:37.690Z,88.20
2022-11-12T01:36:01.462Z,87.90
2022-11-12T01:38:20.470Z,87.60
2022-11-12T01:40:39.688Z,84.60
2022-11-12T01:42:58.845Z,84.70
2022-11-12T01:45:19.905Z,84.50
2022-11-12T01:47:39.321Z,84.00
2022-11-12T01:50:02.273Z,81.10
2022-11-12T01:52:24.351Z,81.20
2022-11-12T01:54:44.487Z,80.20
2022-11-12T01:57:04.674Z,80.80
2022-11-12T01:59:28.343Z,80.30
2022-11-12T02:01:49.552Z,79.10
2022-11-12T02:04:09.022Z,79.60
2022-11-12T02:06:29.106Z,79.90
2022-11-12T02:08:50.470Z,78.70
2022-11-12T02:11:16.866Z,78.80
2022-11-12T02:13:52.195Z,78.90
2022-11-12T02:16:13.607Z,78.90
2022-11-12T02:18:34.410Z,79.20
2022-11-12T02:20:58.742Z,78.40
2022-11-12T02:23:19.799Z,77.70
2022-11-12T02:25:39.323Z,77.90
2022-11-12T02:27:59.867Z,77.20
2022-11-12T02:30:19.027Z,76.70
2022-11-12T02:32:38.447Z,76.00
2022-11-12T02:34:57.661Z,76.00
2022-11-12T02:37:17.080Z,75.20
2022-11-12T02:39:38.142Z,75.60
2022-11-12T02:41:57.554Z,74.10
2022-11-12T02:44:16.356Z,73.30
2022-11-12T02:46:35.620Z,73.60
2022-11-12T02:48:54.528Z,73.30
2022-11-12T02:51:13.846Z,71.20
2022-11-12T02:53:33.519Z,71.90
2022-11-12T02:55:54.884Z,71.40
2022-11-12T02:58:13.994Z,70.60
2022-11-12T03:00:33.310Z,70.80
2022-11-12T03:03:00.050Z,70.70
2022-11-12T03:05:19.469Z,70.70
2022-11-12T03:07:38.431Z,70.10
2022-11-12T03:09:57.692Z,69.70
2022-11-12T03:12:18.700Z,69.20
2022-11-12T03:14:38.222Z,68.40
2022-11-12T03:16:57.563Z,68.60
2022-11-12T03:19:17.107Z,67.40
2022-11-12T03:21:36.740Z,66.30
2022-11-12T03:23:56.149Z,66.50
2022-11-12T03:26:15.526Z,66.90
2022-11-12T03:28:36.940Z,66.60
2022-11-12T03:30:59.989Z,66.30
2022-11-12T03:33:19.103Z,66.60
2022-11-12T03:35:38.822Z,65.50
2022-11-12T03:37:58.241Z,64.40
2022-11-12T03:40:17.916Z,62.70
2022-11-12T03:42:37.233Z,63.00
2022-11-12T03:44:59.264Z,63.00
2022-11-12T03:47:18.627Z,63.50
2022-11-12T03:49:38.253Z,63.10
2022-11-12T03:51:57.414Z,63.20
2022-11-12T03:54:17.042Z,62.90
2022-11-12T03:56:36.404Z,62.10
2022-11-12T03:58:55.774Z,61.00
2022-11-12T04:01:16.858Z,61.60
2022-11-12T04:03:36.659Z,61.50
2022-11-12T04:06:12.357Z,59.90
2022-11-12T04:08:40.735Z,59.50
2022-11-12T04:10:59.951Z,59.90
2022-11-12T04:13:31.966Z,60.10
2022-11-12T04:16:11.863Z,60.30
2022-11-12T04:18:49.317Z,60.10
2022-11-12T04:21:25.113Z,58.10
2022-11-12T04:23:44.637Z,58.70
2022-11-12T04:26:26.122Z,58.30
2022-11-12T04:29:05.805Z,58.00
2022-11-12T04:31:23.645Z,58.10
2022-11-12T04:33:44.645Z,56.40
2022-11-12T04:36:03.908Z,55.20
2022-11-12T04:38:23.756Z,55.00
2022-11-12T04:40:59.604Z,52.90
2022-11-12T04:43:37.602Z,54.00
2022-11-12T04:45:58.043Z,54.70
2022-11-12T04:48:17.301Z,54.30
2022-11-12T04:50:39.587Z,52.90
2022-11-12T04:52:57.931Z,53.80
2022-11-12T04:55:17.555Z,52.70
2022-11-12T04:57:36.871Z,55.10
2022-11-12T04:59:56.448Z,54.70
2022-11-12T05:02:16.069Z,52.30
2022-11-12T05:04:35.645Z,53.70
2022-11-12T05:06:57.194Z,53.20
2022-11-12T05:09:16.730Z,53.40
2022-11-12T05:11:36.044Z,53.50
2022-11-12T05:13:55.628Z,53.50
2022-11-12T05:16:15.146Z,53.00
2022-11-12T05:18:34.721Z,53.30
2022-11-12T05:20:56.220Z,52.30
2022-11-12T05:23:17.384Z,51.10
2022-11-12T05:25:36.859Z,49.50
2022-11-12T05:27:56.222Z,50.50
2022-11-12T05:30:16.665Z,50.30
2022-11-12T05:32:35.933Z,52.60
2022-11-12T05:34:55.400Z,51.60
2022-11-12T05:37:18.452Z,51.70
2022-11-12T05:39:39.767Z,52.20
2022-11-12T05:42:12.480Z,51.50
2022-11-12T05:44:32.996Z,51.60
2022-11-12T05:46:53.120Z,51.40
2022-11-12T05:49:12.910Z,51.00
2022-11-12T05:51:32.277Z,50.70
2022-11-12T05:53:51.899Z,50.40
2022-11-12T05:56:13.730Z,49.30
2022-11-12T05:58:34.006Z,49.80
2022-11-12T06:00:53.326Z,50.60
2022-11-12T06:03:13.817Z,50.60
2022-11-12T06:05:32.940Z,50.50
2022-11-12T06:07:52.605Z,49.70
2022-11-12T06:10:17.482Z,50.70
2022-11-12T06:12:41.584Z,51.00
2022-11-12T06:15:00.791Z,50.30
2022-11-12T06:17:20.465Z,50.10
2022-11-12T06:19:39.637Z,50.50
2022-11-12T06:21:59.315Z,51.00
2022-11-12T06:24:18.520Z,50.10
2022-11-12T06:26:39.112Z,51.40
2022-11-12T06:29:00.886Z,51.20
2022-11-12T06:31:21.443Z,50.20
2022-11-12T06:33:40.977Z,50.10
2022-11-12T06:36:05.649Z,49.20
2022-11-12T06:38:25.240Z,50.20
2022-11-12T06:40:45.517Z,50.70
2022-11-12T06:43:04.665Z,49.90
2022-11-12T06:45:25.877Z,49.70
2022-11-12T06:47:44.989Z,49.50
2022-11-12T06:50:05.331Z,49.70
2022-11-12T06:52:24.499Z,50.50
2022-11-12T06:54:44.073Z,50.50
2022-11-12T06:57:03.285Z,50.30
2022-11-12T06:59:22.946Z,50.10
2022-11-12T07:01:43.936Z,50.40
2022-11-12T07:04:03.783Z,50.40
2022-11-12T07:06:23.462Z,49.80
2022-11-12T07:08:43.556Z,50.10
2022-11-12T07:11:03.629Z,50.70
2022-11-12T07:13:23.251Z,50.40
2022-11-12T07:15:42.581Z,50.60
2022-11-12T07:18:04.144Z,50.40
2022-11-12T07:20:23.356Z,50.70
2022-11-12T07:22:42.923Z,51.20
2022-11-12T07:25:02.094Z,51.10
2022-11-12T07:27:21.707Z,50.90
2022-11-12T07:29:48.941Z,50.70
2022-11-12T07:32:09.109Z,50.70
2022-11-12T07:34:30.205Z,49.90
2022-11-12T07:36:52.551Z,50.30
2022-11-12T07:39:11.761Z,50.00
2022-11-12T07:41:31.530Z,50.50
2022-11-12T07:43:52.551Z,49.70
2022-11-12T07:46:14.515Z,49.20
2022-11-12T07:48:34.905Z,48.90
2022-11-12T07:50:56.334Z,48.90
2022-11-12T07:53:15.648Z,49.30
2022-11-12T07:55:35.313Z,49.50
2022-11-12T07:57:54.641Z,49.80
2022-11-12T08:00:15.487Z,50.10
2022-11-12T08:02:34.857Z,49.70
2022-11-12T08:04:54.381Z,49.30
2022-11-12T08:07:15.481Z,50.20
2022-11-12T08:09:35.356Z,51.00
2022-11-12T08:11:54.572Z,50.30
2022-11-12T08:14:14.194Z,50.20
2022-11-12T08:16:33.564Z,49.80
2022-11-12T08:18:53.183Z,50.00
2022-11-12T08:21:15.785Z,50.40
2022-11-12T08:23:37.258Z,51.00
2022-11-12T08:25:56.563Z,49.90
2022-11-12T08:28:16.032Z,49.80
2022-11-12T08:30:35.560Z,49.60
2022-11-12T08:33:00.765Z,49.90
2022-11-12T08:35:20.377Z,50.00
2022-11-12T08:37:40.566Z,50.40
2022-11-12T08:40:01.582Z,50.80
2022-11-12T08:42:21.205Z,50.50
2022-11-12T08:44:40.358Z,50.50
2022-11-12T08:47:00.593Z,50.00
2022-11-12T08:49:19.662Z,49.80
2022-11-12T08:51:39.226Z,50.00
2022-11-12T08:53:58.491Z,50.30
2022-11-12T08:56:20.005Z,50.50
2022-11-12T08:58:39.075Z,50.00
2022-11-12T09:00:59.769Z,50.60
2022-11-12T09:03:21.800Z,51.40
2022-11-12T09:05:41.830Z,51.10
2022-11-12T09:08:05.828Z,51.60
2022-11-12T09:10:25.375Z,51.20
2022-11-12T09:12:46.435Z,51.30
2022-11-12T09:15:36.443Z,51.00
2022-11-12T09:17:45.648Z,51.90
2022-11-12T09:20:04.922Z,51.90
2022-11-12T09:22:24.176Z,52.30
2022-11-12T09:24:43.804Z,52.60
2022-11-12T09:27:02.923Z,52.70
2022-11-12T09:29:24.134Z,53.00
2022-11-12T09:31:43.283Z,53.50
2022-11-12T09:34:03.013Z,53.80
2022-11-12T09:36:22.237Z,53.40
2022-11-12T09:38:42.411Z,53.60
2022-11-12T09:41:25.792Z,54.00
2022-11-12T09:43:51.711Z,55.10
2022-11-12T09:46:28.818Z,53.60
2022-11-12T09:48:53.245Z,53.90
2022-11-12T09:51:20.936Z,54.60
2022-11-12T09:53:56.536Z,54.60
2022-11-12T09:56:17.897Z,54.30
2022-11-12T09:58:38.193Z,54.10
2022-11-12T10:01:00.367Z,54.70
2022-11-12T10:03:34.892Z,54.90
2022-11-12T10:06:01.225Z,55.10
2022-11-12T10:08:41.838Z,55.20
2022-11-12T10:11:15.234Z,55.40
2022-11-12T10:13:48.786Z,55.40
2022-11-12T10:16:40.414Z,55.70
2022-11-12T10:19:29.528Z,56.10
2022-11-12T10:21:56.422Z,56.30
2022-11-12T10:24:15.902Z,56.50
2022-11-12T10:26:36.438Z,56.90
2022-11-12T10:29:01.283Z,57.30
2022-11-12T10:31:22.346Z,57.70
2022-11-12T10:33:41.566Z,58.10
2022-11-12T10:36:21.722Z,58.40
2022-11-12T10:38:41.895Z,58.70
2022-11-12T10:41:01.113Z,58.80
2022-11-12T10:43:28.054Z,59.50
2022-11-12T10:45:48.040Z,59.90
2022-11-12T10:48:07.913Z,60.00
2022-11-12T10:50:32.718Z,60.10
2022-11-12T10:53:02.478Z,60.30
2022-11-12T10:55:24.964Z,60.60
2022-11-12T10:57:44.377Z,61.20
2022-11-12T11:00:20.919Z,61.80
2022-11-12T11:02:40.534Z,64.80
2022-11-12T11:05:00.142Z,63.90
2022-11-12T11:07:25.915Z,63.70
2022-11-12T11:09:59.056Z,64.40
2022-11-12T11:12:28.815Z,66.10
2022-11-12T11:14:47.931Z,66.30
2022-11-12T11:17:11.037Z,66.40
2022-11-12T11:19:36.030Z,66.90
2022-11-12T11:22:10.816Z,68.50
2022-11-12T11:24:57.313Z,69.40
2022-11-12T11:27:28.415Z,70.90
2022-11-12T11:30:11.227Z,70.40
2022-11-12T11:32:55.168Z,71.40
2022-11-12T11:35:23.849Z,72.00
2022-11-12T11:37:52.315Z,71.80
2022-11-12T11:40:27.372Z,71.40
2022-11-12T11:43:16.635Z,71.40
2022-11-12T11:45:48.236Z,73.10
2022-11-12T11:48:15.601Z,73.90
2022-11-12T11:50:38.797Z,73.70
2022-11-12T11:53:09.026Z,73.40
2022-11-12T11:55:48.868Z,73.90
2022-11-12T11:58:21.496Z,73.30
2022-11-12T12:00:50.595Z,74.40
2022-11-12T12:03:20.546Z,74.80
2022-11-12T12:05:46.786Z,75.40
2022-11-12T12:08:09.588Z,76.10
2022-11-12T12:11:01.206Z,75.40
2022-11-12T12:13:21.855Z,74.80
2022-11-12T12:15:55.817Z,74.20
2022-11-12T12:18:28.431Z,74.70
2022-11-12T12:20:56.369Z,75.60
2022-11-12T12:23:22.740Z,75.80
2022-11-12T12:25:44.515Z,75.70
2022-11-12T12:28:08.028Z,75.70
2022-11-12T12:30:29.701Z,75.40
2022-11-12T12:32:53.222Z,74.70
2022-11-12T12:35:23.230Z,74.60
2022-11-12T12:37:46.029Z,74.10
2022-11-12T12:40:15.174Z,75.00
2022-11-12T12:42:41.046Z,75.40
2022-11-12T12:45:05.892Z,75.90
2022-11-12T12:47:27.000Z,76.80
2022-11-12T12:49:49.698Z,77.20
2022-11-12T12:52:09.165Z,77.50
2022-11-12T12:54:59.251Z,77.70
2022-11-12T12:57:36.897Z,79.40
2022-11-12T13:00:29.775Z,79.30
2022-11-12T13:02:51.267Z,80.00
2022-11-12T13:05:25.331Z,79.40
2022-11-12T13:07:47.462Z,79.40
2022-11-12T13:10:20.150Z,79.10
2022-11-12T13:13:07.053Z,80.40
2022-11-12T13:15:45.728Z,79.20
2022-11-12T13:18:16.914Z,79.80
2022-11-12T13:20:42.695Z,79.70
2022-11-12T13:23:01.952Z,79.00
2022-11-12T13:25:32.020Z,79.50
2022-11-12T13:28:24.547Z,80.10
2022-11-12T13:31:05.181Z,80.40
2022-11-12T13:33:32.329Z,80.40
2022-11-12T13:35:51.594Z,80.30
2022-11-12T13:38:17.621Z,79.80
2022-11-12T13:40:59.105Z,80.30
2022-11-12T13:43:32.355Z,81.40
2022-11-12T13:45:57.039Z,81.30
2022-11-12T13:48:20.919Z,81.10
2022-11-12T13:50:42.335Z,80.50
2022-11-12T13:53:03.076Z,80.10
2022-11-12T13:55:24.658Z,79.80
2022-11-12T13:57:44.117Z,80.80
2022-11-12T14:00:22.786Z,81.40
2022-11-12T14:02:47.229Z,82.10
2022-11-12T14:05:06.742Z,81.60
2022-11-12T14:07:43.824Z,81.80
2022-11-12T14:10:11.136Z,81.90
2022-11-12T14:12:45.139Z,81.60
2022-11-12T14:15:26.984Z,81.40
2022-11-12T14:17:51.418Z,81.60
2022-11-12T14:20:28.248Z,81.30
2022-11-12T14:22:49.880Z,81.50
2022-11-12T14:25:18.616Z,81.40
2022-11-12T14:27:39.261Z,81.80
2022-11-12T14:30:15.166Z,82.00
2022-11-12T14:32:40.000Z,83.00
2022-11-12T14:34:59.215Z,83.30
2022-11-12T14:37:43.055Z,83.10
2022-11-12T14:40:05.150Z,83.10
2022-11-12T14:42:24.968Z,82.60
2022-11-12T14:44:44.689Z,83.40
2022-11-12T14:47:05.543Z,83.60
2022-11-12T14:49:31.310Z,83.20
2022-11-12T14:51:53.603Z,83.20
2022-11-12T14:54:19.676Z,82.80
2022-11-12T14:56:45.644Z,83.60
2022-11-12T14:59:05.785Z,83.10
2022-11-12T15:02:08.792Z,83.20
2022-11-12T15:04:22.914Z,83.00
2022-11-12T15:06:42.626Z,83.90
2022-11-12T15:09:02.724Z,84.10
2022-11-12T15:11:27.978Z,83.80
2022-11-12T15:13:50.314Z,83.60
2022-11-12T15:16:11.268Z,84.60
2022-11-12T15:18:32.329Z,84.30
2022-11-12T15:21:13.353Z,84.10
2022-11-12T15:23:33.436Z,84.50
2022-11-12T15:26:02.069Z,83.80
2022-11-12T15:28:26.710Z,83.40
2022-11-12T15:31:04.261Z,83.60
2022-11-12T15:33:26.846Z,83.50
2022-11-12T15:35:47.189Z,83.50
2022-11-12T15:38:09.742Z,83.20
2022-11-12T15:40:28.942Z,84.10
2022-11-12T15:42:49.847Z,84.60
2022-11-12T15:45:16.533Z,84.90
2022-11-12T15:47:37.805Z,84.30
2022-11-12T15:49:57.995Z,84.00
2022-11-12T15:52:17.556Z,83.90
2022-11-12T15:54:40.874Z,84.00
2022-11-12T15:57:00.553Z,84.00
2022-11-12T15:59:21.460Z,84.20
2022-11-12T16:01:40.707Z,84.30
2022-11-12T16:04:02.435Z,85.00
2022-11-12T16:06:21.697Z,85.00
2022-11-12T16:08:41.218Z,85.10
2022-11-12T16:11:00.789Z,85.40
2022-11-12T16:13:24.143Z,85.30
2022-11-12T16:15:43.577Z,85.50
2022-11-12T16:18:03.704Z,85.70
2022-11-12T16:20:27.371Z,85.90
2022-11-12T16:22:47.101Z,86.00
2022-11-12T16:25:06.311Z,86.60
2022-11-12T16:27:25.783Z,86.90
2022-11-12T16:29:45.047Z,86.80
2022-11-12T16:32:04.464Z,86.70
2022-11-12T16:34:23.729Z,87.10
2022-11-12T16:36:45.604Z,87.10
2022-11-12T16:39:04.756Z,87.10
2022-11-12T16:41:24.289Z,87.50
2022-11-12T16:43:43.552Z,87.50
2022-11-12T16:46:02.920Z,87.80
2022-11-12T16:48:23.771Z,88.10
2022-11-12T16:50:43.447Z,88.20
2022-11-12T16:53:04.098Z,88.00
2022-11-12T16:55:23.924Z,88.10
2022-11-12T16:57:43.901Z,88.60
2022-11-12T17:00:03.120Z,88.70
2022-11-12T17:02:22.133Z,88.90
2022-11-12T17:04:41.493Z,89.20
2022-11-12T17:07:01.025Z,89.60
2022-11-12T17:09:21.866Z,89.70
2022-11-12T17:11:41.285Z,89.70
2022-11-12T17:14:00.294Z,89.70
2022-11-12T17:16:19.713Z,89.50
2022-11-12T17:18:39.027Z,89.40
2022-11-12T17:20:58.344Z,89.70
2022-11-12T17:23:17.866Z,89.70
2022-11-12T17:25:38.768Z,89.70
2022-11-12T17:27:57.778Z,89.80
2022-11-12T17:30:17.661Z,90.00
2022-11-12T17:32:36.921Z,89.90
2022-11-12T17:34:56.546Z,89.10
2022-11-12T17:37:16.322Z,89.40
2022-11-12T17:39:35.637Z,89.70
2022-11-12T17:41:56.954Z,89.80
2022-11-12T17:44:19.853Z,89.80
2022-11-12T17:46:38.810Z,89.90
2022-11-12T17:48:59.394Z,90.20
2022-11-12T17:51:22.506Z,90.40
2022-11-12T17:53:43.509Z,90.40
2022-11-12T17:56:04.773Z,90.70
2022-11-12T17:58:26.444Z,90.60
2022-11-12T18:00:46.392Z,90.40
2022-11-12T18:03:06.458Z,90.30
2022-11-12T18:05:25.934Z,89.90
2022-11-12T18:07:45.859Z,89.90
2022-11-12T18:10:05.382Z,89.90
2022-11-12T18:12:25.263Z,90.00
2022-11-12T18:14:46.523Z,90.00
2022-11-12T18:17:06.558Z,89.60
2022-11-12T18:19:25.978Z,89.20
2022-11-12T18:21:46.010Z,89.20
2022-11-12T18:24:05.172Z,89.40
2022-11-12T18:26:25.051Z,89.50
2022-11-12T18:28:44.526Z,89.50
2022-11-12T18:31:07.372Z,89.60
2022-11-12T18:33:26.590Z,89.50
2022-11-12T18:35:46.053Z,89.30
2022-11-12T18:38:05.062Z,89.00
2022-11-12T18:40:25.402Z,89.40
2022-11-12T18:42:44.616Z,89.00
2022-11-12T18:45:04.088Z,88.90
2022-11-12T18:47:25.042Z,89.20
2022-11-12T18:49:44.765Z,89.30
2022-11-12T18:52:04.287Z,89.20
2022-11-12T18:54:25.345Z,89.10
2022-11-12T18:56:44.506Z,89.50
2022-11-12T18:59:03.722Z,89.60
2022-11-12T19:01:24.685Z,89.70
2022-11-12T19:03:45.782Z,90.00
2022-11-12T19:06:05.512Z,90.00
2022-11-12T19:08:24.721Z,89.80
2022-11-12T19:10:43.628Z,90.00
2022-11-12T19:13:05.404Z,90.10
2022-11-12T19:15:26.720Z,90.40
2022-11-12T19:17:45.621Z,90.70
2022-11-12T19:20:06.527Z,91.40
2022-11-12T19:22:25.895Z,91.00
2022-11-12T19:24:45.055Z,90.60
2022-11-12T19:27:04.013Z,90.60
2022-11-12T19:29:23.534Z,90.80
2022-11-12T19:31:42.796Z,90.90
2022-11-12T19:34:02.267Z,91.10
2022-11-12T19:36:24.915Z,91.10
2022-11-12T19:38:44.484Z,91.00
2022-11-12T19:41:07.476Z,91.00
2022-11-12T19:43:26.804Z,90.60
2022-11-12T19:45:45.763Z,90.70
2022-11-12T19:48:05.435Z,91.00
2022-11-12T19:50:24.967Z,91.30
2022-11-12T19:52:46.319Z,91.70
2022-11-12T19:55:05.226Z,91.50
2022-11-12T19:57:24.647Z,91.70
2022-11-12T19:59:43.603Z,92.20
2022-11-12T20:02:02.939Z,92.60
2022-11-12T20:04:24.395Z,92.50
2022-11-12T20:06:43.868Z,92.60
2022-11-12T20:09:04.963Z,92.60
2022-11-12T20:11:24.383Z,92.70
2022-11-12T20:13:43.496Z,92.60
2022-11-12T20:16:02.760Z,92.20
2022-11-12T20:18:21.868Z,92.10
2022-11-12T20:20:41.390Z,92.40
2022-11-12T20:23:00.553Z,92.60
2022-11-12T20:25:21.658Z,92.70
2022-11-12T20:27:40.974Z,92.40
2022-11-12T20:30:00.708Z,92.30
2022-11-12T20:32:20.173Z,92.50
2022-11-12T20:34:39.897Z,92.50
2022-11-12T20:36:59.316Z,92.40
2022-11-12T20:39:19.196Z,92.20
2022-11-12T20:41:40.302Z,92.30
2022-11-12T20:44:01.362Z,92.30
2022-11-12T20:46:20.583Z,92.30
2022-11-12T20:48:43.497Z,92.20
2022-11-12T20:51:23.079Z,92.10
2022-11-12T20:53:44.174Z,91.80
2022-11-12T20:56:09.896Z,91.70
2022-11-12T20:58:33.008Z,91.60
2022-11-12T21:00:53.589Z,91.90
2022-11-12T21:03:13.220Z,92.30
2022-11-12T21:05:32.384Z,92.30
2022-11-12T21:07:51.911Z,92.30
2022-11-12T21:10:12.037Z,92.40
2022-11-12T21:12:31.516Z,92.50
2022-11-12T21:14:52.457Z,92.90
2022-11-12T21:17:11.885Z,93.20
2022-11-12T21:19:31.100Z,93.30
2022-11-12T21:21:50.557Z,93.40
2022-11-12T21:24:10.548Z,93.80
2022-11-12T21:26:30.067Z,94.10
2022-11-12T21:28:50.015Z,94.00
2022-11-12T21:31:13.309Z,93.70
2022-11-12T21:33:32.526Z,93.60
2022-11-12T21:35:56.188Z,93.20
2022-11-12T21:38:15.403Z,93.30
2022-11-12T21:40:34.825Z,93.40
2022-11-12T21:42:54.137Z,93.40
2022-11-12T21:45:15.243Z,93.30
2022-11-12T21:47:36.347Z,93.40
2022-11-12T21:49:55.918Z,93.60
2022-11-12T21:52:15.593Z,93.90
2022-11-12T21:54:35.126Z,93.70
2022-11-12T21:56:54.389Z,93.40
2022-11-12T21:59:13.951Z,93.60
2022-11-12T22:01:35.270Z,93.80
2022-11-12T22:03:57.504Z,93.90
2022-11-12T22:06:17.082Z,94.20
2022-11-12T22:08:36.953Z,94.40
2022-11-12T22:10:56.420Z,94.30
2022-11-12T22:13:31.016Z,94.00
2022-11-12T22:15:51.695Z,93.70
2022-11-12T22:18:11.010Z,93.20
2022-11-12T22:20:32.324Z,93.40
2022-11-12T22:22:51.490Z,93.90
2022-11-12T22:25:11.527Z,94.20
2022-11-12T22:27:32.427Z,94.60
2022-11-12T22:29:52.964Z,94.90
2022-11-12T22:32:12.181Z,94.70
2022-11-12T22:34:31.801Z,94.50
2022-11-12T22:36:52.911Z,94.40
2022-11-12T22:39:12.685Z,94.20
2022-11-12T22:41:33.600Z,94.10
2022-11-12T22:43:53.774Z,94.10
2022-11-12T22:46:15.660Z,94.20
2022-11-12T22:48:35.336Z,94.10
2022-11-12T22:50:54.620Z,94.10
2022-11-12T22:53:15.852Z,93.90
2022-11-12T22:55:35.424Z,94.00
2022-11-12T22:57:54.895Z,94.10
2022-11-12T23:00:15.851Z,94.40
2022-11-12T23:02:37.264Z,94.60
2022-11-12T23:04:56.437Z,94.90
2022-11-12T23:07:15.908Z,94.90
2022-11-12T23:09:37.015Z,94.60
2022-11-12T23:11:56.681Z,94.70
2022-11-12T23:14:15.996Z,95.00
2022-11-12T23:16:36.399Z,95.30
2022-11-12T23:18:56.636Z,95.50
2022-11-12T23:21:17.785Z,95.60
2022-11-12T23:23:38.176Z,96.00
2022-11-12T23:26:04.303Z,96.60
2022-11-12T23:28:23.772Z,96.90
2022-11-12T23:30:43.037Z,97.20
2022-11-12T23:33:02.763Z,97.20
2022-11-12T23:35:21.872Z,97.40
2022-11-12T23:37:41.648Z,97.40
2022-11-12T23:40:00.914Z,97.40
2022-11-12T23:42:22.228Z,97.50
2022-11-12T23:44:41.652Z,97.20
2022-11-12T23:47:01.120Z,97.00
2022-11-12T23:49:20.125Z,96.90
2022-11-12T23:51:39.849Z,97.00
2022-11-12T23:53:59.116Z,97.10
2022-11-12T23:56:20.386Z,97.00
2022-11-12T23:58:42.305Z,97.00
